createdAt,value
2023-11-06T00:05:24.410Z,24.9
2023-11-06T00:11:14.781Z,24.9
2023-11-06T00:17:18.696Z,24.9
2023-11-06T00:23:10.682Z,24.9
2023-11-06T00:29:00.921Z,24.9
2023-11-06T00:34:53.706Z,24.9
2023-11-06T00:40:48.400Z,24.9
2023-11-06T00:46:39.929Z,24.9
2023-11-06T00:52:31.985Z,24.9
2023-11-06T00:58:24.225Z,24.9
2023-11-06T01:03:44.390Z,25.5
2023-11-06T01:09:21.881Z,27.9
2023-11-06T01:14:58.286Z,29.9
2023-11-06T01:20:18.967Z,31.6
2023-11-06T01:26:20.724Z,33.2
2023-11-06T01:31:56.993Z,34.6
2023-11-06T01:37:32.657Z,35.9
2023-11-06T01:43:25.708Z,37
2023-11-06T01:49:17.611Z,37.9
2023-11-06T01:55:08.144Z,38.8
2023-11-06T02:00:44.835Z,39.6
2023-11-06T02:06:37.727Z,40.5
2023-11-06T02:12:13.743Z,41.3
2023-11-06T02:18:06.731Z,42.1
2023-11-06T02:24:09.366Z,42.9
2023-11-06T02:30:01.140Z,43.9
2023-11-06T02:35:54.227Z,44.3
2023-11-06T02:41:47.157Z,44.5
2023-11-06T02:47:38.661Z,44.6
2023-11-06T02:53:33.155Z,44.7
2023-11-06T02:59:24.815Z,44.8
2023-11-06T03:05:17.232Z,44.8
2023-11-06T03:11:09.829Z,44.8
2023-11-06T03:17:01.646Z,44.8
2023-11-06T03:22:53.663Z,44.8
2023-11-06T03:28:45.415Z,44.8
2023-11-06T03:34:38.208Z,44.8
2023-11-06T03:40:29.978Z,44.8
2023-11-06T03:46:26.775Z,44.8
2023-11-06T03:52:19.274Z,44.8
2023-11-06T03:58:10.252Z,44.8
2023-11-06T04:03:47.384Z,44.7
2023-11-06T04:09:42.492Z,44.7
2023-11-06T04:15:34.971Z,44.6
2023-11-06T04:21:28.284Z,44.6
2023-11-06T04:27:20.622Z,44.5
2023-11-06T04:32:56.397Z,44.5
2023-11-06T04:38:50.509Z,44.4
2023-11-06T04:44:42.999Z,44.4
2023-11-06T04:50:34.816Z,44.3
2023-11-06T04:56:26.680Z,44.3
2023-11-06T05:02:21.647Z,44.3
2023-11-06T05:07:59.273Z,44.2
2023-11-06T05:13:51.056Z,44.1
2023-11-06T05:19:42.812Z,44
2023-11-06T05:25:23.519Z,43.9
2023-11-06T05:31:15.597Z,43.9
2023-11-06T05:36:37.686Z,43.8
2023-11-06T05:42:29.422Z,43.8
2023-11-06T05:48:06.585Z,43.8
2023-11-06T05:54:00.035Z,43.6
2023-11-06T05:59:39.787Z,43.6
2023-11-06T06:05:17.856Z,43.4
2023-11-06T06:10:56.935Z,43.4
2023-11-06T06:16:32.372Z,43.3
2023-11-06T06:22:10.357Z,43.3
2023-11-06T06:27:47.163Z,43.1
2023-11-06T06:33:25.274Z,43.1
2023-11-06T06:38:47.223Z,42.9
2023-11-06T06:44:07.912Z,52.6
2023-11-06T06:49:44.245Z,51.4
2023-11-06T06:55:21.426Z,49
2023-11-06T07:00:58.059Z,47.6
2023-11-06T07:06:35.720Z,53.5
2023-11-06T07:12:13.051Z,54.7
2023-11-06T07:17:49.570Z,55.2
2023-11-06T07:23:26.625Z,55.3
2023-11-06T07:28:48.721Z,55.9
2023-11-06T07:34:25.654Z,56.4
2023-11-06T07:40:18.288Z,57
2023-11-06T07:45:55.350Z,57.6
2023-11-06T07:51:17.145Z,58.1
2023-11-06T07:57:09.148Z,58.6
2023-11-06T08:02:59.990Z,59.1
2023-11-06T08:08:52.413Z,59.7
2023-11-06T08:14:30.508Z,59.8
2023-11-06T08:19:53.804Z,60.1
2023-11-06T08:25:47.241Z,60.7
2023-11-06T08:31:40.044Z,61.3
2023-11-06T08:37:33.367Z,61.8
2023-11-06T08:43:10.337Z,62.4
2023-11-06T08:49:02.927Z,62.8
2023-11-06T08:54:45.238Z,63.3
2023-11-06T09:00:37.857Z,63.8
2023-11-06T09:06:30.908Z,64.3
2023-11-06T09:12:09.124Z,64.8
2023-11-06T09:18:01.382Z,65.2
2023-11-06T09:23:54.237Z,65.6
2023-11-06T09:29:49.013Z,66
2023-11-06T09:35:42.682Z,66.5
2023-11-06T09:41:35.171Z,66.9
2023-11-06T09:47:13.994Z,67.5
2023-11-06T09:53:09.356Z,68
2023-11-06T09:58:33.149Z,68.6
2023-11-06T10:04:26.141Z,69.1
2023-11-06T10:10:19.762Z,69.4
2023-11-06T10:16:00.909Z,69.4
2023-11-06T10:21:54.353Z,70.1
2023-11-06T10:27:33.736Z,69.9
2023-11-06T10:33:28.000Z,69.9
2023-11-06T10:39:09.073Z,70.8
2023-11-06T10:45:20.124Z,71.3
2023-11-06T10:51:14.096Z,71.9
2023-11-06T10:57:17.964Z,71.1
2023-11-06T11:03:11.332Z,71.7
2023-11-06T11:09:05.059Z,72.4
2023-11-06T11:15:00.901Z,72.8
2023-11-06T11:20:58.020Z,73.3
2023-11-06T11:26:50.969Z,72.6
2023-11-06T11:32:43.736Z,72.8
2023-11-06T11:38:43.167Z,73.2
2023-11-06T11:44:35.771Z,73.4
2023-11-06T11:50:28.385Z,72.8
2023-11-06T11:56:05.741Z,73.1
2023-11-06T12:01:57.575Z,73.2
2023-11-06T12:07:52.974Z,73.1
2023-11-06T12:13:49.394Z,73
2023-11-06T12:19:49.601Z,73.3
2023-11-06T12:25:42.693Z,72.7
2023-11-06T12:31:19.811Z,71.7
2023-11-06T12:37:15.639Z,70.6
2023-11-06T12:43:07.630Z,69.9
2023-11-06T12:49:16.015Z,69.1
2023-11-06T12:55:08.013Z,68.2
2023-11-06T13:01:01.787Z,67.4
2023-11-06T13:06:55.404Z,66.6
2023-11-06T13:12:41.255Z,65.8
2023-11-06T13:18:18.462Z,65
2023-11-06T13:24:10.973Z,64.3
2023-11-06T13:30:04.778Z,62.9
2023-11-06T13:35:57.130Z,59.4
2023-11-06T13:41:50.098Z,56.5
2023-11-06T13:47:40.984Z,54.8
2023-11-06T13:53:34.502Z,53.7
2023-11-06T13:59:44.217Z,52.8
2023-11-06T14:05:20.656Z,52.1
2023-11-06T14:11:12.589Z,51.4
2023-11-06T14:16:48.740Z,50.8
2023-11-06T14:22:40.711Z,50.3
2023-11-06T14:28:32.336Z,49.8
2023-11-06T14:34:25.363Z,49.3
2023-11-06T14:40:17.062Z,48.9
2023-11-06T14:46:09.447Z,48.5
2023-11-06T14:52:13.084Z,48.1
2023-11-06T14:58:20.376Z,47.8
2023-11-06T15:04:13.356Z,47.4
2023-11-06T15:10:06.444Z,46.9
2023-11-06T15:15:58.624Z,45.8
2023-11-06T15:21:52.026Z,45.3
2023-11-06T15:27:48.454Z,44.9
2023-11-06T15:33:41.907Z,44.3
2023-11-06T15:39:35.231Z,40.9
2023-11-06T15:45:31.055Z,35.9
2023-11-06T15:51:33.766Z,33.2
2023-11-06T15:57:26.803Z,31.9
2023-11-06T16:02:48.935Z,31.2
2023-11-06T16:08:43.511Z,30.7
2023-11-06T16:14:35.707Z,30.3
2023-11-06T16:20:28.919Z,29.9
2023-11-06T16:26:23.488Z,29.6
2023-11-06T16:32:00.750Z,29.3
2023-11-06T16:38:07.220Z,29
2023-11-06T16:43:59.280Z,28.8
2023-11-06T16:49:52.607Z,28.6
2023-11-06T16:55:44.436Z,28.3
2023-11-06T17:01:36.642Z,28.1
2023-11-06T17:07:30.186Z,27.9
2023-11-06T17:13:26.489Z,27.7
2023-11-06T17:19:23.138Z,27.4
2023-11-06T17:25:19.961Z,27.3
2023-11-06T17:31:12.530Z,27.1
2023-11-06T17:37:05.715Z,26.6
2023-11-06T17:43:01.298Z,26.1
2023-11-06T17:48:56.189Z,25.8
2023-11-06T17:54:48.087Z,25.6
2023-11-06T18:00:40.366Z,25.3
2023-11-06T18:06:36.410Z,25.1
2023-11-06T18:12:11.872Z,24.9
2023-11-06T18:18:03.880Z,24.8
2023-11-06T18:23:57.331Z,24.7
2023-11-06T18:29:48.195Z,24.6
2023-11-06T18:35:40.948Z,24.6
2023-11-06T18:41:17.893Z,24.5
2023-11-06T18:46:53.934Z,24.5
2023-11-06T18:52:46.689Z,24.4
2023-11-06T18:58:39.417Z,24.2
2023-11-06T19:04:31.838Z,24
2023-11-06T19:10:31.551Z,23.9
2023-11-06T19:16:23.710Z,23.8
2023-11-06T19:22:16.372Z,23.9
2023-11-06T19:28:11.519Z,23.9
2023-11-06T19:34:05.033Z,23.9
2023-11-06T19:39:56.495Z,24
2023-11-06T19:45:48.926Z,24
2023-11-06T19:51:45.109Z,24
2023-11-06T19:57:37.056Z,23.9
2023-11-06T20:04:04.966Z,23.3
2023-11-06T20:09:57.732Z,22.6
2023-11-06T20:15:49.315Z,22.2
2023-11-06T20:21:42.791Z,21.9
2023-11-06T20:27:35.160Z,21.7
2023-11-06T20:33:14.051Z,21.5
2023-11-06T20:38:36.346Z,21.4
2023-11-06T20:44:15.235Z,21.3
2023-11-06T20:50:07.976Z,21.2
2023-11-06T20:55:59.991Z,21.1
2023-11-06T21:01:52.257Z,21.1
2023-11-06T21:07:29.858Z,21
2023-11-06T21:13:22.309Z,20.9
2023-11-06T21:19:14.483Z,20.9
2023-11-06T21:25:06.475Z,20.9
2023-11-06T21:30:58.903Z,20.8
2023-11-06T21:36:55.531Z,20.8
2023-11-06T21:42:16.940Z,20.8
2023-11-06T21:48:09.486Z,20.8
2023-11-06T21:54:02.010Z,20.8
2023-11-06T22:00:08.863Z,20.8
2023-11-06T22:06:09.384Z,20.7
2023-11-06T22:11:54.167Z,20.7
2023-11-06T22:17:15.880Z,20.7
2023-11-06T22:22:25.046Z,20.7
2023-11-06T22:28:16.322Z,20.7
2023-11-06T22:34:09.190Z,20.6
2023-11-06T22:39:47.423Z,20.6
2023-11-06T22:45:39.950Z,20.6
2023-11-06T22:51:33.253Z,20.6
2023-11-06T22:57:09.736Z,20.6
2023-11-06T23:02:46.542Z,20.6
2023-11-06T23:08:23.466Z,20.6
2023-11-06T23:14:15.743Z,20.6
2023-11-06T23:20:08.735Z,20.6
2023-11-06T23:26:10.196Z,20.5
2023-11-06T23:31:56.720Z,20.5
2023-11-06T23:37:49.769Z,20.5
2023-11-06T23:43:52.759Z,20.5
2023-11-06T23:49:46.482Z,20.5
2023-11-06T23:55:38.242Z,20.5
